Time;durP1;ratioP1;P1;durP2;ratioP2;P2;SDS_P1;SDS_P2;PMS_P1;PMS_P2;Temp;Humidity;BMP_temperature;BMP_pressure;BME280_temperature;BME280_humidity;BME280_pressure;Samples;Min_cycle;Max_cycle;Signal;HPM_P1;HPM_P2
2023/06/02 00:01:08;;;;;;;8.85;5.05;;;14.40;99.90;;;;;;4994923;28;20565;-84
2023/06/02 00:03:36;;;;;;;8.93;5.53;;;14.40;99.90;;;;;;5020406;28;20076;-84
2023/06/02 00:06:03;;;;;;;7.80;5.35;;;14.40;99.90;;;;;;5023068;28;20017;-83
2023/06/02 00:08:32;;;;;;;11.73;5.68;;;14.40;99.90;;;;;;5024261;28;20026;-84
2023/06/02 00:10:58;;;;;;;9.40;5.53;;;14.40;99.90;;;;;;5023974;28;20030;-84
2023/06/02 00:13:26;;;;;;;8.15;5.70;;;14.40;99.90;;;;;;5013949;28;20506;-84
2023/06/02 00:15:51;;;;;;;9.65;6.00;;;14.40;99.90;;;;;;5011587;28;20026;-84
2023/06/02 00:18:17;;;;;;;15.50;6.13;;;14.30;99.90;;;;;;5013026;28;20119;-84
2023/06/02 00:20:44;;;;;;;12.75;5.72;;;14.30;99.90;;;;;;5012866;28;20030;-84
2023/06/02 00:23:10;;;;;;;9.98;5.30;;;14.20;99.90;;;;;;5011499;28;20116;-84
2023/06/02 00:25:36;;;;;;;10.52;6.60;;;14.20;99.90;;;;;;5012066;28;20121;-84
2023/06/02 00:28:03;;;;;;;8.75;5.70;;;14.10;99.90;;;;;;5012864;28;20033;-84
2023/06/02 00:30:30;;;;;;;11.27;6.00;;;14.10;99.90;;;;;;5014504;28;20040;-83
2023/06/02 00:32:56;;;;;;;9.18;5.82;;;14.00;99.90;;;;;;5012094;28;20104;-84
2023/06/02 00:35:21;;;;;;;10.52;5.88;;;14.00;99.90;;;;;;5011833;28;20831;-86
2023/06/02 00:37:47;;;;;;;12.27;6.22;;;13.90;99.90;;;;;;5012575;28;20343;-84
2023/06/02 00:40:13;;;;;;;12.35;6.38;;;13.90;99.90;;;;;;5012760;28;20036;-84
2023/06/02 00:42:39;;;;;;;8.52;6.03;;;13.90;99.90;;;;;;5011946;28;20034;-84
2023/06/02 00:45:05;;;;;;;8.70;6.20;;;13.90;99.90;;;;;;5012532;28;20037;-84
2023/06/02 00:47:30;;;;;;;8.48;5.68;;;13.90;99.90;;;;;;5012435;28;20034;-84
2023/06/02 00:49:57;;;;;;;10.02;6.03;;;13.80;99.90;;;;;;5013031;28;20093;-83
2023/06/02 00:52:23;;;;;;;11.55;6.22;;;13.80;99.90;;;;;;5014561;28;20077;-83
2023/06/02 00:54:49;;;;;;;9.50;6.13;;;13.80;99.90;;;;;;5014438;28;20029;-84
2023/06/02 00:57:16;;;;;;;10.05;6.65;;;13.80;99.90;;;;;;5014626;28;20033;-84
2023/06/02 00:59:43;;;;;;;14.15;7.10;;;13.80;99.90;;;;;;5015776;28;20123;-84
2023/06/02 01:02:10;;;;;;;11.43;6.72;;;13.80;99.90;;;;;;5016574;28;20021;-83
2023/06/02 01:04:40;;;;;;;9.27;6.22;;;13.80;99.90;;;;;;5016215;28;20034;-83
2023/06/02 01:07:07;;;;;;;9.55;6.18;;;13.70;99.90;;;;;;5015238;28;20069;-84
2023/06/02 01:09:34;;;;;;;13.75;6.70;;;13.70;99.90;;;;;;5016264;28;20039;-84
2023/06/02 01:12:00;;;;;;;9.45;6.72;;;13.70;99.90;;;;;;5014637;28;20033;-84
2023/06/02 01:14:25;;;;;;;11.80;6.43;;;13.60;99.90;;;;;;5014643;28;20064;-83
2023/06/02 01:16:51;;;;;;;12.75;6.43;;;13.60;99.90;;;;;;5013512;28;20029;-83
2023/06/02 01:19:21;;;;;;;8.85;6.03;;;13.60;99.90;;;;;;5012780;28;20029;-84
2023/06/02 01:21:59;;;;;;;9.93;6.70;;;13.60;99.90;;;;;;5012255;28;20022;-84
2023/06/02 01:24:36;;;;;;;11.52;7.03;;;13.60;99.90;;;;;;5014511;28;20033;-83
2023/06/02 01:27:10;;;;;;;11.80;6.75;;;13.60;99.90;;;;;;5017785;28;20044;-84
2023/06/02 01:29:36;;;;;;;15.13;6.68;;;13.60;99.90;;;;;;5017860;28;20036;-82
2023/06/02 01:32:10;;;;;;;8.48;6.03;;;13.50;99.90;;;;;;5018196;28;20129;-83
2023/06/02 01:34:47;;;;;;;12.98;6.72;;;13.50;99.90;;;;;;5017470;28;20083;-83
2023/06/02 01:37:14;;;;;;;12.68;6.25;;;13.50;99.90;;;;;;5018505;28;20030;-84
2023/06/02 01:39:41;;;;;;;11.00;6.88;;;13.50;99.90;;;;;;5017299;28;20025;-84
2023/06/02 01:42:07;;;;;;;10.10;6.68;;;13.40;99.90;;;;;;5014828;28;20105;-84
2023/06/02 01:44:35;;;;;;;10.68;6.80;;;13.50;99.90;;;;;;5014180;28;20036;-83
2023/06/02 01:47:01;;;;;;;12.50;7.35;;;13.40;99.90;;;;;;5015426;28;20919;-84
2023/06/02 01:49:26;;;;;;;9.68;6.43;;;13.40;99.90;;;;;;5015890;28;20029;-84
2023/06/02 01:51:54;;;;;;;10.98;6.60;;;13.40;99.90;;;;;;5015109;28;20492;-84
2023/06/02 01:54:20;;;;;;;9.93;6.57;;;13.30;99.90;;;;;;5015284;28;20041;-84
2023/06/02 01:56:46;;;;;;;10.88;6.20;;;13.30;99.90;;;;;;5013444;28;20131;-83
2023/06/02 01:59:12;;;;;;;12.70;6.15;;;13.30;99.90;;;;;;5015841;28;20041;-84
2023/06/02 02:01:40;;;;;;;10.80;6.43;;;13.20;99.90;;;;;;5015083;28;20037;-83
2023/06/02 02:04:06;;;;;;;9.40;6.53;;;13.20;99.90;;;;;;5013499;28;20038;-84
2023/06/02 02:06:32;;;;;;;12.32;7.03;;;13.20;99.90;;;;;;5013317;28;20038;-84
2023/06/02 02:08:58;;;;;;;10.70;6.93;;;13.10;99.90;;;;;;5015648;28;20025;-83
2023/06/02 02:11:26;;;;;;;12.77;7.57;;;13.10;99.90;;;;;;5015363;28;20038;-84
2023/06/02 02:13:52;;;;;;;9.82;6.57;;;13.00;99.90;;;;;;5014190;28;20057;-84
2023/06/02 02:16:17;;;;;;;20.75;7.47;;;13.00;99.90;;;;;;5013268;28;20244;-84
2023/06/02 02:18:45;;;;;;;9.05;6.65;;;13.00;99.90;;;;;;4998002;28;20049;-84
2023/06/02 02:21:11;;;;;;;10.73;6.80;;;13.00;99.90;;;;;;5012124;28;20029;-84
2023/06/02 02:23:37;;;;;;;10.40;6.80;;;13.00;99.90;;;;;;5013263;28;20363;-84
2023/06/02 02:26:03;;;;;;;10.73;6.88;;;12.90;99.90;;;;;;5012732;28;20049;-84
2023/06/02 02:28:29;;;;;;;11.35;7.28;;;12.90;99.90;;;;;;5014193;28;20080;-83
2023/06/02 02:30:54;;;;;;;12.48;7.43;;;12.90;99.90;;;;;;5013543;28;20026;-83
2023/06/02 02:33:20;;;;;;;11.98;7.60;;;12.80;99.90;;;;;;5013393;28;20052;-84
2023/06/02 02:35:46;;;;;;;11.50;7.40;;;12.80;99.90;;;;;;5013246;28;20094;-83
2023/06/02 02:38:12;;;;;;;12.32;7.57;;;12.70;99.90;;;;;;5032144;22;20053;-84
2023/06/02 02:40:37;;;;;;;13.75;7.80;;;12.70;99.90;;;;;;4983751;28;20034;-82
2023/06/02 02:43:03;;;;;;;10.27;7.47;;;12.60;99.90;;;;;;4984206;28;20122;-81
2023/06/02 02:45:28;;;;;;;13.52;7.20;;;12.60;99.90;;;;;;4983958;28;20133;-81
2023/06/02 02:47:54;;;;;;;11.00;7.63;;;12.60;99.90;;;;;;4983020;28;20067;-82
2023/06/02 02:50:19;;;;;;;11.75;7.60;;;12.60;99.90;;;;;;4983863;28;20051;-81
2023/06/02 02:52:45;;;;;;;10.55;7.05;;;12.60;99.90;;;;;;4987038;28;20042;-80
2023/06/02 02:55:10;;;;;;;11.07;7.20;;;12.60;99.90;;;;;;4994258;28;20015;-80
2023/06/02 02:57:37;;;;;;;11.48;8.00;;;12.60;99.90;;;;;;4993220;28;20809;-80
2023/06/02 03:00:07;;;;;;;10.85;7.25;;;12.60;99.90;;;;;;4993285;28;20041;-79
2023/06/02 03:02:32;;;;;;;12.68;7.80;;;12.50;99.90;;;;;;4991813;28;20031;-79
2023/06/02 03:05:02;;;;;;;11.48;7.47;;;12.50;99.90;;;;;;4984448;28;20033;-80
2023/06/02 03:07:28;;;;;;;13.32;7.07;;;12.40;99.90;;;;;;4983558;28;21329;-79
2023/06/02 03:09:53;;;;;;;11.25;8.02;;;12.40;99.90;;;;;;4983575;28;20086;-82
2023/06/02 03:12:19;;;;;;;9.93;7.47;;;12.40;99.90;;;;;;4983435;28;20070;-81
2023/06/02 03:14:44;;;;;;;12.55;6.78;;;12.30;99.90;;;;;;4983117;28;20030;-82
2023/06/02 03:17:10;;;;;;;12.23;7.50;;;12.30;99.90;;;;;;4984127;28;20518;-81
2023/06/02 03:19:35;;;;;;;12.20;7.47;;;12.30;99.90;;;;;;4981828;28;20035;-81
2023/06/02 03:22:03;;;;;;;14.32;7.53;;;12.30;99.90;;;;;;4982941;28;20498;-81
2023/06/02 03:24:28;;;;;;;8.50;7.07;;;12.20;99.90;;;;;;4983099;28;20034;-81
2023/06/02 03:26:57;;;;;;;12.57;8.05;;;12.20;99.90;;;;;;4981676;28;20045;-81
2023/06/02 03:29:23;;;;;;;10.40;7.70;;;12.20;99.90;;;;;;4983346;28;20038;-82
2023/06/02 03:31:51;;;;;;;12.70;8.20;;;12.20;99.90;;;;;;4984314;28;20030;-81
2023/06/02 03:34:17;;;;;;;12.57;7.53;;;12.20;99.90;;;;;;4982143;28;20026;-81
2023/06/02 03:36:43;;;;;;;12.70;8.13;;;12.20;99.90;;;;;;4982064;28;20121;-81
2023/06/02 03:39:09;;;;;;;9.90;7.60;;;12.20;99.90;;;;;;4983287;28;20116;-81
2023/06/02 03:41:36;;;;;;;11.98;8.05;;;12.20;99.90;;;;;;4983068;28;20537;-81
2023/06/02 03:44:03;;;;;;;13.45;8.15;;;12.20;99.90;;;;;;4983609;28;20077;-82
2023/06/02 03:46:28;;;;;;;12.68;8.05;;;12.20;99.90;;;;;;4981915;28;20045;-82
2023/06/02 03:48:54;;;;;;;14.90;8.93;;;12.20;99.90;;;;;;4982827;28;20034;-82
2023/06/02 03:51:20;;;;;;;10.25;8.50;;;12.20;99.90;;;;;;4982410;28;20231;-81
2023/06/02 03:53:46;;;;;;;10.20;7.72;;;12.20;99.90;;;;;;4982435;28;20055;-81
2023/06/02 03:56:12;;;;;;;13.40;7.88;;;12.20;99.90;;;;;;4981365;28;20502;-81
2023/06/02 03:58:37;;;;;;;10.35;8.13;;;12.20;99.90;;;;;;4983081;28;20031;-82
2023/06/02 04:01:04;;;;;;;10.98;7.78;;;12.20;99.90;;;;;;4981365;28;20045;-82
2023/06/02 04:03:32;;;;;;;11.35;8.10;;;12.20;99.90;;;;;;4981229;28;20038;-81
2023/06/02 04:05:58;;;;;;;12.73;7.75;;;12.20;99.90;;;;;;4981694;28;20034;-81
2023/06/02 04:08:24;;;;;;;12.55;7.93;;;12.20;99.90;;;;;;4983078;28;20066;-81
2023/06/02 04:10:49;;;;;;;11.77;7.78;;;12.30;99.90;;;;;;4981905;28;20089;-81
2023/06/02 04:13:15;;;;;;;10.52;7.20;;;12.30;99.90;;;;;;4981149;28;20041;-81
2023/06/02 04:15:40;;;;;;;11.10;8.10;;;12.30;99.90;;;;;;4979976;28;20526;-82
2023/06/02 04:18:06;;;;;;;12.35;7.78;;;12.40;99.90;;;;;;4980200;28;20061;-81
2023/06/02 04:20:31;;;;;;;10.25;7.65;;;12.40;99.90;;;;;;4980543;28;20018;-82
2023/06/02 04:22:57;;;;;;;20.05;8.18;;;12.50;99.90;;;;;;4980651;28;20034;-82
2023/06/02 04:25:23;;;;;;;10.55;7.35;;;12.50;99.90;;;;;;4979792;28;20506;-83
2023/06/02 04:27:48;;;;;;;11.82;8.18;;;12.60;99.90;;;;;;4983970;28;20034;-82
2023/06/02 04:30:14;;;;;;;14.00;7.97;;;12.60;99.90;;;;;;4984826;28;20057;-81
2023/06/02 04:32:40;;;;;;;10.00;7.55;;;12.70;99.90;;;;;;4982511;28;20050;-83
2023/06/02 04:35:06;;;;;;;13.07;7.60;;;12.70;99.90;;;;;;4982673;28;20066;-82
2023/06/02 04:37:32;;;;;;;13.52;8.20;;;12.80;99.90;;;;;;4983446;28;20469;-84
2023/06/02 04:40:01;;;;;;;12.15;7.47;;;12.90;99.90;;;;;;4982621;28;20042;-83
2023/06/02 04:42:27;;;;;;;11.60;7.57;;;12.90;99.90;;;;;;4982785;28;20053;-83
2023/06/02 04:44:53;;;;;;;10.63;7.68;;;13.00;99.90;;;;;;4983558;28;20038;-84
2023/06/02 04:47:19;;;;;;;10.43;7.55;;;13.10;99.90;;;;;;4983715;28;20023;-83
2023/06/02 04:49:45;;;;;;;10.75;7.57;;;13.10;99.90;;;;;;4980926;28;20041;-84
2023/06/02 04:52:11;;;;;;;10.18;7.50;;;13.20;99.90;;;;;;4980509;28;20250;-81
2023/06/02 04:54:36;;;;;;;12.25;7.55;;;13.30;99.90;;;;;;4980665;28;20034;-73
2023/06/02 04:57:05;;;;;;;15.27;7.90;;;13.40;99.90;;;;;;4975113;28;20580;-73
2023/06/02 04:59:35;;;;;;;10.65;7.63;;;13.50;99.90;;;;;;4974589;28;20022;-74
2023/06/02 05:02:01;;;;;;;10.77;7.55;;;13.60;99.90;;;;;;4975071;28;20094;-74
2023/06/02 05:04:26;;;;;;;11.45;7.13;;;13.70;99.90;;;;;;4977178;28;20126;-75
2023/06/02 05:06:52;;;;;;;13.55;7.50;;;13.80;99.90;;;;;;4977160;28;20038;-75
2023/06/02 05:09:18;;;;;;;12.13;7.93;;;13.90;99.90;;;;;;4978207;28;20034;-75
2023/06/02 05:11:44;;;;;;;26.05;8.32;;;14.00;99.90;;;;;;4978528;28;20770;-75
2023/06/02 05:14:09;;;;;;;12.10;7.20;;;14.10;99.90;;;;;;4977853;28;20042;-75
2023/06/02 05:16:36;;;;;;;12.38;7.47;;;14.20;99.90;;;;;;4975536;28;20570;-75
2023/06/02 05:19:03;;;;;;;9.88;7.20;;;14.30;99.90;;;;;;4976936;28;20046;-74
2023/06/02 05:21:30;;;;;;;12.90;8.10;;;14.40;99.90;;;;;;4978209;28;20056;-74
2023/06/02 05:23:56;;;;;;;13.63;7.53;;;14.40;99.90;;;;;;4978345;28;20036;-74
2023/06/02 05:26:21;;;;;;;10.90;6.95;;;14.50;99.90;;;;;;4975546;28;20038;-74
2023/06/02 05:28:50;;;;;;;9.18;7.03;;;14.70;99.90;;;;;;4975723;28;20752;-75
2023/06/02 05:31:16;;;;;;;9.13;6.90;;;14.80;99.90;;;;;;4975532;28;20050;-75
2023/06/02 05:33:41;;;;;;;11.68;7.15;;;14.90;99.90;;;;;;4975473;28;20038;-75
2023/06/02 05:36:07;;;;;;;10.52;6.72;;;15.00;99.90;;;;;;4973960;28;20176;-76
2023/06/02 05:38:33;;;;;;;9.25;6.90;;;15.10;99.90;;;;;;4970965;28;20066;-75
2023/06/02 05:40:58;;;;;;;10.48;6.30;;;15.30;99.90;;;;;;4974564;28;20084;-75
2023/06/02 05:43:24;;;;;;;10.35;7.00;;;15.40;99.90;;;;;;4974584;28;20080;-75
2023/06/02 05:45:49;;;;;;;9.07;6.38;;;15.50;99.90;;;;;;4975190;28;20190;-76
2023/06/02 05:48:15;;;;;;;9.93;6.43;;;15.60;99.90;;;;;;4974737;28;20038;-75
2023/06/02 05:50:42;;;;;;;8.50;5.90;;;15.80;99.90;;;;;;4974475;28;20410;-75
2023/06/02 05:53:08;;;;;;;9.43;5.88;;;16.00;99.90;;;;;;4972948;28;20129;-76
2023/06/02 05:55:33;;;;;;;10.25;5.90;;;16.10;99.90;;;;;;4972530;28;20767;-74
2023/06/02 05:57:59;;;;;;;8.07;5.90;;;16.30;99.90;;;;;;4973700;28;20781;-76
2023/06/02 06:00:25;;;;;;;12.90;6.13;;;16.50;99.90;;;;;;4974825;28;20036;-76
2023/06/02 06:02:51;;;;;;;11.02;6.38;;;16.60;99.90;;;;;;4975427;28;20398;-75
2023/06/02 06:05:17;;;;;;;9.73;6.13;;;16.60;99.90;;;;;;4975104;28;20039;-75
2023/06/02 06:07:42;;;;;;;7.95;5.65;;;16.70;99.90;;;;;;4976336;28;20385;-75
2023/06/02 06:10:08;;;;;;;12.88;6.45;;;16.70;99.90;;;;;;4975736;28;20077;-75
2023/06/02 06:12:34;;;;;;;9.40;5.70;;;16.90;99.90;;;;;;4976175;28;20542;-75
2023/06/02 06:15:00;;;;;;;12.48;6.30;;;17.00;99.90;;;;;;4975423;28;20061;-75
2023/06/02 06:17:26;;;;;;;10.45;6.05;;;17.10;99.90;;;;;;4976982;28;20049;-75
2023/06/02 06:19:51;;;;;;;13.40;6.72;;;17.20;99.90;;;;;;4976440;28;20038;-75
2023/06/02 06:22:17;;;;;;;13.10;6.78;;;17.30;99.90;;;;;;4975951;28;20042;-76
2023/06/02 06:24:43;;;;;;;14.25;6.70;;;17.40;99.90;;;;;;4974664;28;20041;-75
2023/06/02 06:27:08;;;;;;;7.80;6.07;;;17.40;99.90;;;;;;4974238;28;20100;-76
2023/06/02 06:29:34;;;;;;;12.70;6.53;;;17.50;99.90;;;;;;4972893;28;20034;-75
2023/06/02 06:32:00;;;;;;;9.57;5.85;;;17.50;99.90;;;;;;4973772;28;20400;-75
2023/06/02 06:34:27;;;;;;;11.60;6.13;;;17.70;99.90;;;;;;4973209;28;20077;-76
2023/06/02 06:36:52;;;;;;;17.67;7.05;;;17.80;99.90;;;;;;4974231;28;20042;-75
2023/06/02 06:39:18;;;;;;;12.60;6.70;;;17.80;99.90;;;;;;4973994;28;20478;-76
2023/06/02 06:41:44;;;;;;;7.63;5.47;;;17.90;99.90;;;;;;4978577;28;20086;-82
2023/06/02 06:44:10;;;;;;;9.57;5.70;;;17.90;99.90;;;;;;4981954;28;20103;-82
2023/06/02 06:46:36;;;;;;;8.70;5.95;;;17.90;99.90;;;;;;4976906;28;20037;-83
2023/06/02 06:49:01;;;;;;;9.85;5.80;;;18.00;99.90;;;;;;4979189;28;20147;-82
2023/06/02 06:51:27;;;;;;;9.15;6.32;;;18.00;99.90;;;;;;4979962;28;20034;-82
2023/06/02 06:53:53;;;;;;;13.23;6.10;;;18.10;99.90;;;;;;4980287;28;20048;-82
2023/06/02 06:56:18;;;;;;;9.20;5.95;;;18.20;99.90;;;;;;4979167;28;20099;-82
2023/06/02 06:58:44;;;;;;;9.70;6.20;;;18.30;99.90;;;;;;4978621;28;20064;-82
2023/06/02 07:01:10;;;;;;;13.45;6.78;;;18.30;99.90;;;;;;4978895;28;20036;-82
2023/06/02 07:03:36;;;;;;;10.90;6.32;;;18.30;99.90;;;;;;4979725;28;20822;-82
2023/06/02 07:06:02;;;;;;;11.50;5.82;;;18.40;99.90;;;;;;4980095;28;20037;-82
2023/06/02 07:08:28;;;;;;;14.73;6.63;;;18.40;99.90;;;;;;4981058;28;20038;-82
2023/06/02 07:10:54;;;;;;;10.43;6.60;;;18.50;99.90;;;;;;4979979;28;21319;-82
2023/06/02 07:13:19;;;;;;;9.75;5.82;;;18.50;99.90;;;;;;4979756;28;20233;-82
2023/06/02 07:15:45;;;;;;;8.90;5.70;;;18.50;99.90;;;;;;4979827;28;20062;-82
2023/06/02 07:18:11;;;;;;;9.65;5.93;;;18.50;99.90;;;;;;4980793;28;20026;-82
2023/06/02 07:20:37;;;;;;;12.40;6.63;;;18.50;99.90;;;;;;4981473;28;20030;-82
2023/06/02 07:23:02;;;;;;;9.60;6.30;;;18.50;99.90;;;;;;4979488;28;20506;-82
2023/06/02 07:25:28;;;;;;;11.80;5.80;;;18.50;99.90;;;;;;4980504;28;20039;-83
2023/06/02 07:27:53;;;;;;;8.40;5.53;;;18.60;99.90;;;;;;4980428;28;20092;-82
2023/06/02 07:30:20;;;;;;;9.57;5.82;;;18.70;99.90;;;;;;4979364;28;20034;-83
2023/06/02 07:32:45;;;;;;;9.88;5.72;;;18.80;99.90;;;;;;4979212;28;20493;-82
2023/06/02 07:35:11;;;;;;;9.00;5.85;;;18.80;99.90;;;;;;4978435;28;20088;-82
2023/06/02 07:37:36;;;;;;;15.70;6.43;;;18.90;99.90;;;;;;4979468;28;20548;-82
2023/06/02 07:40:02;;;;;;;12.40;5.90;;;18.90;99.90;;;;;;4978715;28;20700;-82
2023/06/02 07:42:28;;;;;;;9.75;6.28;;;19.00;99.90;;;;;;4977009;28;20420;-82
2023/06/02 07:44:54;;;;;;;11.05;6.20;;;19.10;99.90;;;;;;4976578;28;20027;-82
2023/06/02 07:47:21;;;;;;;11.63;5.93;;;19.10;99.90;;;;;;4977569;28;20089;-82
2023/06/02 07:49:46;;;;;;;14.20;6.03;;;19.20;99.90;;;;;;4978595;28;20098;-82
2023/06/02 07:52:12;;;;;;;9.60;6.13;;;19.30;99.90;;;;;;4978399;28;20447;-82
2023/06/02 07:54:37;;;;;;;10.05;6.30;;;19.30;99.90;;;;;;4979928;28;21500;-82
2023/06/02 07:57:03;;;;;;;15.55;6.25;;;19.40;99.90;;;;;;4978314;28;20438;-82
2023/06/02 07:59:28;;;;;;;10.63;6.07;;;19.40;99.90;;;;;;4979347;28;20037;-82
2023/06/02 08:01:54;;;;;;;10.93;5.82;;;19.50;99.90;;;;;;4980541;28;20482;-83
2023/06/02 08:04:25;;;;;;;12.75;5.97;;;19.40;99.90;;;;;;4983131;28;20038;-82
2023/06/02 08:06:57;;;;;;;10.02;5.43;;;19.50;99.90;;;;;;4984110;28;20046;-82
2023/06/02 08:09:24;;;;;;;10.00;6.75;;;19.60;99.90;;;;;;4983253;28;20165;-82
2023/06/02 08:11:52;;;;;;;14.45;6.20;;;19.60;99.90;;;;;;4981739;28;20026;-82
2023/06/02 08:14:18;;;;;;;10.43;6.30;;;19.70;99.90;;;;;;4982020;28;20186;-82
2023/06/02 08:16:43;;;;;;;9.50;5.70;;;19.80;99.90;;;;;;4981696;28;20085;-82
2023/06/02 08:19:10;;;;;;;13.15;5.38;;;19.90;99.90;;;;;;4981088;28;20034;-82
2023/06/02 08:21:38;;;;;;;8.15;5.10;;;20.00;99.90;;;;;;4982303;28;20050;-82
2023/06/02 08:24:03;;;;;;;11.32;5.40;;;20.10;99.90;;;;;;4980889;28;20069;-82
2023/06/02 08:26:30;;;;;;;9.90;6.10;;;20.30;99.90;;;;;;4984972;28;20077;-82
2023/06/02 08:28:57;;;;;;;8.48;6.15;;;20.20;99.90;;;;;;4983206;28;20031;-82
2023/06/02 08:31:23;;;;;;;16.35;6.38;;;20.30;99.90;;;;;;4984334;28;20030;-84
2023/06/02 08:33:54;;;;;;;11.82;5.93;;;20.30;99.90;;;;;;4979656;28;20543;-82
2023/06/02 08:36:20;;;;;;;16.13;5.60;;;20.30;99.90;;;;;;4979518;28;20109;-82
2023/06/02 08:38:51;;;;;;;9.68;5.88;;;20.40;99.90;;;;;;4978463;28;20037;-82
2023/06/02 08:41:17;;;;;;;11.63;5.70;;;20.50;99.90;;;;;;4979764;28;21512;-82
2023/06/02 08:43:44;;;;;;;12.27;5.85;;;20.60;99.90;;;;;;4979326;28;20035;-82
2023/06/02 08:46:14;;;;;;;12.70;5.80;;;20.70;99.90;;;;;;4977049;28;20047;-82
2023/06/02 08:48:45;;;;;;;10.30;6.60;;;20.80;99.90;;;;;;4982936;28;20026;-82
2023/06/02 08:51:15;;;;;;;10.25;6.10;;;20.90;99.90;;;;;;4983356;28;20026;-82
2023/06/02 08:53:42;;;;;;;9.23;6.03;;;20.90;99.90;;;;;;4983378;28;20061;-82
2023/06/02 08:56:07;;;;;;;9.27;5.97;;;20.80;99.90;;;;;;4983485;28;20494;-81
2023/06/02 08:58:34;;;;;;;11.43;6.35;;;20.90;99.90;;;;;;4984706;28;20148;-82
2023/06/02 09:01:02;;;;;;;10.43;5.18;;;20.90;99.90;;;;;;4985285;28;20082;-82
2023/06/02 09:03:27;;;;;;;12.23;5.78;;;21.00;99.90;;;;;;4983727;28;20042;-82
2023/06/02 09:05:53;;;;;;;10.60;5.57;;;21.10;99.90;;;;;;4982989;28;20033;-82
2023/06/02 09:08:19;;;;;;;13.57;6.07;;;21.30;99.90;;;;;;4982144;28;20141;-82
2023/06/02 09:10:47;;;;;;;7.40;5.22;;;21.40;99.90;;;;;;4984065;28;20035;-82
2023/06/02 09:13:30;;;;;;;12.13;6.00;;;21.40;99.90;;;;;;4977420;28;20173;-76
2023/06/02 09:16:02;;;;;;;14.63;5.85;;;21.50;99.90;;;;;;4977092;28;20038;-76
2023/06/02 09:18:29;;;;;;;13.77;6.00;;;21.70;99.90;;;;;;4976559;28;20054;-77
2023/06/02 09:20:58;;;;;;;7.78;4.88;;;21.80;99.90;;;;;;4977155;28;20388;-76
2023/06/02 09:23:45;;;;;;;9.07;4.78;;;21.90;99.90;;;;;;4973026;28;20026;-78
2023/06/02 09:26:18;;;;;;;13.18;5.80;;;22.10;99.90;;;;;;4973856;28;20105;-76
2023/06/02 09:28:44;;;;;;;12.38;5.50;;;22.20;99.90;;;;;;4976995;28;20057;-77
2023/06/02 09:31:11;;;;;;;10.13;5.70;;;22.40;99.90;;;;;;4975108;28;20119;-77
2023/06/02 09:33:37;;;;;;;12.02;5.47;;;22.50;99.90;;;;;;4974502;28;20034;-75
2023/06/02 09:36:04;;;;;;;9.07;5.82;;;22.70;99.90;;;;;;4973354;28;20054;-76
2023/06/02 09:38:42;;;;;;;11.02;5.82;;;22.90;99.90;;;;;;4975465;28;20038;-77
2023/06/02 09:41:15;;;;;;;7.10;5.40;;;23.20;99.90;;;;;;4974125;28;20189;-76
2023/06/02 09:43:41;;;;;;;10.63;5.40;;;23.50;99.90;;;;;;4974072;28;20042;-76
2023/06/02 09:46:07;;;;;;;7.63;4.40;;;23.70;99.90;;;;;;4974433;28;20034;-77
2023/06/02 09:48:34;;;;;;;6.93;4.80;;;23.90;99.90;;;;;;4975980;28;20779;-78
2023/06/02 09:51:00;;;;;;;8.75;5.70;;;24.00;99.90;;;;;;4975518;28;20034;-76
2023/06/02 09:53:27;;;;;;;10.63;6.03;;;24.20;99.90;;;;;;4976455;28;20039;-76
2023/06/02 09:55:53;;;;;;;10.23;6.25;;;24.30;99.90;;;;;;4976585;28;20085;-76
2023/06/02 09:58:18;;;;;;;10.80;5.32;;;24.20;99.90;;;;;;4978466;28;20126;-76
2023/06/02 10:00:44;;;;;;;7.57;5.03;;;24.40;99.90;;;;;;4975630;28;20117;-79
2023/06/02 10:03:10;;;;;;;8.02;4.95;;;24.80;99.90;;;;;;4976838;28;20499;-76
2023/06/02 10:05:39;;;;;;;13.75;5.45;;;25.00;99.90;;;;;;4975253;28;20038;-74
2023/06/02 10:08:15;;;;;;;8.93;5.05;;;25.20;99.90;;;;;;4975939;28;20112;-75
2023/06/02 10:11:08;;;;;;;9.05;5.30;;;25.30;99.90;;;;;;4975598;28;21438;-76
2023/06/02 10:14:09;;;;;;;15.13;5.38;;;25.50;99.90;;;;;;4976897;28;20065;-76
2023/06/02 10:17:13;;;;;;;8.75;5.35;;;25.50;99.90;;;;;;4975187;28;20398;-75
2023/06/02 10:19:57;;;;;;;9.88;4.80;;;25.80;99.90;;;;;;4974951;28;20049;-74
2023/06/02 10:22:28;;;;;;;8.77;4.97;;;25.80;99.90;;;;;;4975598;28;20284;-74
2023/06/02 10:25:08;;;;;;;6.60;4.22;;;25.80;99.90;;;;;;4973920;28;20053;-82
2023/06/02 10:27:40;;;;;;;8.70;4.95;;;25.90;99.90;;;;;;4976519;28;20105;-74
2023/06/02 10:30:06;;;;;;;8.50;4.85;;;26.10;99.90;;;;;;4974581;28;20038;-74
2023/06/02 10:32:44;;;;;;;8.45;4.70;;;26.20;99.90;;;;;;4975400;28;20038;-74
2023/06/02 10:35:10;;;;;;;10.90;4.95;;;26.40;99.90;;;;;;4974344;28;21468;-73
2023/06/02 10:37:37;;;;;;;6.38;4.60;;;26.40;99.90;;;;;;4973942;28;20022;-74
2023/06/02 10:40:05;;;;;;;10.07;4.75;;;26.40;99.20;;;;;;4972769;28;21052;-74
2023/06/02 10:42:31;;;;;;;6.53;4.18;;;26.40;97.30;;;;;;4974104;28;20157;-74
2023/06/02 10:45:23;;;;;;;11.98;4.78;;;26.60;98.40;;;;;;4973331;28;20035;-74
2023/06/02 10:47:48;;;;;;;10.07;4.90;;;26.70;98.40;;;;;;4973515;28;20040;-75
2023/06/02 10:50:21;;;;;;;7.13;4.38;;;26.90;98.20;;;;;;4968591;28;20034;-77
2023/06/02 10:52:55;;;;;;;7.95;4.22;;;27.10;98.40;;;;;;4971601;28;20042;-79
2023/06/02 10:55:21;;;;;;;6.32;4.30;;;27.20;97.70;;;;;;4972239;28;20449;-80
2023/06/02 10:58:03;;;;;;;7.93;4.70;;;27.10;95.80;;;;;;4971797;28;20062;-77
2023/06/02 11:00:32;;;;;;;9.90;4.50;;;27.10;95.40;;;;;;4970453;28;20031;-76
2023/06/02 11:03:17;;;;;;;8.32;4.30;;;27.10;95.20;;;;;;4971841;28;20041;-79
2023/06/02 11:05:43;;;;;;;11.13;4.78;;;27.20;96.60;;;;;;4973132;28;20038;-76
2023/06/02 11:08:15;;;;;;;7.25;5.00;;;27.50;95.60;;;;;;4972083;28;20030;-76
2023/06/02 11:10:46;;;;;;;10.20;4.40;;;27.60;95.90;;;;;;4971257;28;20160;-76
2023/06/02 11:13:25;;;;;;;8.60;4.18;;;27.60;94.30;;;;;;4972233;28;20053;-77
2023/06/02 11:15:53;;;;;;;12.95;4.63;;;27.60;90.10;;;;;;4971346;28;20049;-77
2023/06/02 11:18:22;;;;;;;9.65;4.22;;;27.60;92.70;;;;;;4971410;28;20053;-80
2023/06/02 11:20:51;;;;;;;8.68;4.47;;;27.50;91.50;;;;;;4970247;28;20054;-77
2023/06/02 11:23:17;;;;;;;6.55;4.40;;;27.40;94.70;;;;;;4973523;28;20076;-78
2023/06/02 11:25:44;;;;;;;9.00;4.25;;;27.60;93.40;;;;;;4971310;28;20034;-77
2023/06/02 11:28:22;;;;;;;7.00;4.05;;;27.80;92.60;;;;;;4969810;28;20030;-78
2023/06/02 11:31:13;;;;;;;9.63;4.20;;;28.10;91.40;;;;;;4969311;28;20038;-77
2023/06/02 11:33:41;;;;;;;6.85;3.80;;;28.20;89.90;;;;;;4970927;28;20871;-76
2023/06/02 11:36:11;;;;;;;10.38;4.05;;;28.40;89.40;;;;;;4972125;28;21190;-78
2023/06/02 11:38:38;;;;;;;9.52;4.35;;;28.50;89.60;;;;;;4971565;28;20045;-76
2023/06/02 11:41:15;;;;;;;10.88;4.30;;;28.50;89.50;;;;;;4970188;28;20034;-79
2023/06/02 11:43:42;;;;;;;7.18;4.15;;;28.60;90.60;;;;;;4973434;28;20034;-77
2023/06/02 11:46:09;;;;;;;10.75;4.55;;;28.60;90.10;;;;;;4972057;28;20053;-77
2023/06/02 11:48:38;;;;;;;8.60;4.00;;;28.60;87.10;;;;;;4970232;28;20522;-77
2023/06/02 11:51:09;;;;;;;10.55;4.28;;;28.30;88.30;;;;;;4969479;28;20038;-77
2023/06/02 11:53:37;;;;;;;6.82;3.95;;;28.40;87.10;;;;;;4973456;28;20452;-76
2023/06/02 11:56:06;;;;;;;7.72;4.00;;;28.40;89.80;;;;;;4970858;28;20034;-77
2023/06/02 11:58:39;;;;;;;7.95;4.30;;;28.50;87.80;;;;;;4970953;28;20398;-78
2023/06/02 12:01:07;;;;;;;9.00;4.05;;;28.50;89.50;;;;;;4969367;28;20060;-76
2023/06/02 12:03:33;;;;;;;7.78;4.03;;;28.60;83.90;;;;;;4972205;28;20821;-76
2023/06/02 12:06:16;;;;;;;7.85;3.53;;;28.50;86.80;;;;;;4971677;28;20441;-76
2023/06/02 12:08:42;;;;;;;9.32;3.83;;;28.30;82.40;;;;;;4971920;28;20938;-76
2023/06/02 12:11:18;;;;;;;7.53;3.70;;;28.20;82.60;;;;;;4971193;28;20118;-78
2023/06/02 12:14:00;;;;;;;7.13;4.20;;;28.10;83.90;;;;;;4972629;28;20104;-77
2023/06/02 12:16:26;;;;;;;8.02;4.47;;;28.40;83.80;;;;;;4971981;28;20042;-77
2023/06/02 12:18:54;;;;;;;6.07;4.15;;;28.40;86.60;;;;;;4971735;28;20036;-76
2023/06/02 12:21:26;;;;;;;6.43;4.40;;;28.60;84.40;;;;;;4972112;28;20034;-76
2023/06/02 12:23:52;;;;;;;6.45;4.38;;;28.70;83.20;;;;;;4969501;28;20108;-78
2023/06/02 12:26:18;;;;;;;6.45;4.32;;;28.60;84.40;;;;;;4971618;28;21710;-79
2023/06/02 12:28:45;;;;;;;6.30;3.92;;;28.60;83.20;;;;;;4971253;28;20031;-77
2023/06/02 12:31:11;;;;;;;9.65;4.35;;;28.80;81.10;;;;;;4971346;28;20043;-76
2023/06/02 12:33:37;;;;;;;8.18;4.15;;;28.70;80.70;;;;;;4971282;28;20070;-77
2023/06/02 12:36:03;;;;;;;6.63;4.00;;;28.60;79.60;;;;;;4971585;28;20105;-76
2023/06/02 12:38:29;;;;;;;6.30;3.95;;;28.40;79.80;;;;;;4971246;28;20038;-77
2023/06/02 12:40:54;;;;;;;6.95;3.97;;;28.20;82.10;;;;;;4971965;28;20470;-76
2023/06/02 12:43:20;;;;;;;7.50;4.25;;;28.50;81.60;;;;;;4970830;28;20030;-74